EFRO

Rovaniemi Airport

Rovaniemi, Finland
METAR EFRO 192250Z AUTO 22013KT CAVOK 09/05 Q0998
Observed Flight Rules
Aug-19 @ 22:50 UTC (19 minutes ago) Visual Flight Rules
Wind Visibility Clouds
220° at 13 knots 10,000+ meters
  • Clear skies
Temperatures Readings
Current 9°C / 48°F
Dewpoint 5°C / 41°F
Humidity 76%
Altimeter 29.47" Hg
Pressure 998 hPa
Elevation 201
METAR EFRO 192250Z AUTO 22013KT CAVOK 09/05 Q0998
Observed Flight Rules
Aug-19 @ 22:50 UTC
(19 minutes ago)
VFR
Wind Visibility
220° at 13 knots 10,000+ meters
Clouds
  • Clear skies
Temperature Dewpoint
9°C / 48°F 5°C / 41°F
Humidity Altimeter Pressure
76% 29.47" Hg 998 hPa